createdAt,value
2018-09-22T00:01:36.725Z,2.10
2018-09-22T00:04:04.897Z,1.60
2018-09-22T00:06:33.113Z,2.40
2018-09-22T00:09:01.273Z,2.17
2018-09-22T00:11:29.484Z,1.87
2018-09-22T00:13:57.701Z,1.90
2018-09-22T00:16:25.900Z,1.67
2018-09-22T00:18:54.096Z,1.57
2018-09-22T00:21:22.281Z,1.90
2018-09-22T00:23:50.497Z,2.13
2018-09-22T00:26:18.663Z,1.67
2018-09-22T00:28:46.889Z,1.90
2018-09-22T00:31:15.074Z,1.97
2018-09-22T00:33:43.275Z,2.50
2018-09-22T00:36:11.461Z,1.77
2018-09-22T00:38:39.660Z,1.80
2018-09-22T00:41:07.885Z,2.33
2018-09-22T00:43:36.092Z,1.97
2018-09-22T00:46:04.337Z,2.10
2018-09-22T00:48:32.503Z,1.83
2018-09-22T00:51:00.699Z,1.87
2018-09-22T00:53:28.864Z,1.90
2018-09-22T00:55:57.017Z,2.17
2018-09-22T00:58:25.336Z,1.80
2018-09-22T01:00:53.554Z,1.60
2018-09-22T01:03:21.780Z,2.20
2018-09-22T01:05:49.973Z,1.90
2018-09-22T01:08:18.132Z,2.27
2018-09-22T01:10:46.397Z,1.50
2018-09-22T01:13:14.605Z,1.50
2018-09-22T01:15:42.784Z,1.40
2018-09-22T01:18:11.025Z,1.53
2018-09-22T01:20:39.205Z,1.50
2018-09-22T01:23:07.416Z,1.70
2018-09-22T01:25:35.593Z,2.10
2018-09-22T01:28:03.836Z,1.80
2018-09-22T01:30:32.049Z,1.43
2018-09-22T01:33:00.257Z,1.70
2018-09-22T01:35:28.504Z,1.50
2018-09-22T01:37:56.688Z,1.47
2018-09-22T01:40:24.893Z,2.07
2018-09-22T01:42:53.229Z,1.70
2018-09-22T01:45:21.544Z,1.30
2018-09-22T01:47:49.778Z,2.13
2018-09-22T01:50:18.029Z,1.50
2018-09-22T01:52:46.254Z,1.80
2018-09-22T01:55:14.497Z,1.03
2018-09-22T01:57:42.665Z,1.70
2018-09-22T02:00:10.961Z,1.27
2018-09-22T02:02:39.132Z,1.60
2018-09-22T02:05:07.408Z,1.37
2018-09-22T02:07:35.581Z,2.00
2018-09-22T02:10:03.849Z,1.90
2018-09-22T02:12:32.053Z,1.47
2018-09-22T02:15:00.197Z,2.07
2018-09-22T02:17:28.567Z,1.90
2018-09-22T02:19:56.752Z,1.47
2018-09-22T02:22:24.965Z,1.23
2018-09-22T02:24:53.276Z,1.40
2018-09-22T02:27:21.506Z,1.50
2018-09-22T02:29:49.712Z,1.60
2018-09-22T02:32:17.967Z,1.50
2018-09-22T02:34:46.185Z,1.90
2018-09-22T02:37:14.350Z,1.70
2018-09-22T02:39:42.533Z,1.40
2018-09-22T02:42:10.752Z,1.80
2018-09-22T02:44:38.924Z,1.43
2018-09-22T02:47:07.108Z,1.73
2018-09-22T02:49:35.289Z,1.40
2018-09-22T02:52:03.545Z,2.00
2018-09-22T02:54:31.755Z,1.87
2018-09-22T02:56:59.892Z,1.47
2018-09-22T02:59:28.129Z,2.00
2018-09-22T03:01:56.314Z,1.63
2018-09-22T03:04:24.592Z,1.73
2018-09-22T03:06:52.867Z,1.30
2018-09-22T03:09:21.056Z,2.03
2018-09-22T03:11:49.240Z,1.53
2018-09-22T03:14:17.377Z,1.57
2018-09-22T03:16:45.589Z,1.40
2018-09-22T03:19:13.753Z,1.57
2018-09-22T03:21:41.969Z,1.73
2018-09-22T03:24:10.143Z,1.30
2018-09-22T03:26:38.361Z,1.63
2018-09-22T03:29:06.568Z,1.83
2018-09-22T03:31:34.748Z,1.63
2018-09-22T03:34:02.957Z,1.33
2018-09-22T03:36:32.153Z,1.50
2018-09-22T03:39:00.356Z,1.53
2018-09-22T03:41:28.569Z,2.00
2018-09-22T03:43:56.718Z,1.87
2018-09-22T03:46:24.918Z,1.80
2018-09-22T03:48:53.097Z,1.70
2018-09-22T03:51:21.313Z,2.07
2018-09-22T03:53:49.535Z,2.17
2018-09-22T03:56:17.696Z,1.67
2018-09-22T03:58:45.893Z,1.97
2018-09-22T04:01:14.062Z,1.60
2018-09-22T04:03:42.276Z,1.87
2018-09-22T04:06:10.440Z,1.67
2018-09-22T04:08:38.641Z,1.43
2018-09-22T04:11:06.817Z,2.17
2018-09-22T04:13:35.008Z,2.07
2018-09-22T04:16:03.249Z,2.03
2018-09-22T04:18:31.420Z,2.00
2018-09-22T04:20:59.677Z,1.57
2018-09-22T04:23:27.845Z,1.73
2018-09-22T04:25:56.067Z,1.40
2018-09-22T04:28:24.310Z,1.67
2018-09-22T04:30:52.502Z,2.13
2018-09-22T04:33:20.723Z,1.53
2018-09-22T04:35:48.924Z,1.77
2018-09-22T04:38:17.365Z,1.53
2018-09-22T04:40:45.607Z,1.63
2018-09-22T04:43:13.781Z,1.40
2018-09-22T04:45:41.993Z,1.67
2018-09-22T04:48:10.177Z,1.87
2018-09-22T04:50:38.386Z,2.03
2018-09-22T04:53:06.606Z,2.03
2018-09-22T04:55:34.797Z,1.67
2018-09-22T04:58:03.003Z,1.80
2018-09-22T05:00:31.196Z,1.97
2018-09-22T05:02:59.399Z,1.80
2018-09-22T05:05:27.598Z,1.90
2018-09-22T05:07:55.755Z,2.00
2018-09-22T05:10:23.981Z,1.50
2018-09-22T05:12:52.178Z,2.27
2018-09-22T05:15:20.393Z,1.70
2018-09-22T05:17:48.625Z,1.80
2018-09-22T05:20:16.784Z,2.00
2018-09-22T05:22:45.018Z,2.07
2018-09-22T05:25:13.190Z,2.20
2018-09-22T05:27:41.436Z,1.50
2018-09-22T05:30:09.665Z,1.90
2018-09-22T05:32:37.820Z,2.20
2018-09-22T05:35:12.597Z,2.07
2018-09-22T05:37:40.749Z,1.90
2018-09-22T05:40:08.976Z,1.77
2018-09-22T05:42:37.157Z,2.00
2018-09-22T05:45:06.356Z,1.93
2018-09-22T05:47:34.601Z,1.83
2018-09-22T05:50:02.787Z,1.83
2018-09-22T05:52:31.054Z,2.00
2018-09-22T05:54:59.244Z,1.57
2018-09-22T05:57:27.457Z,1.80
2018-09-22T05:59:55.617Z,1.60
2018-09-22T06:02:23.861Z,1.93
2018-09-22T06:04:52.034Z,2.10
2018-09-22T06:07:20.245Z,2.63
2018-09-22T06:09:48.453Z,1.40
2018-09-22T06:12:16.676Z,1.80
2018-09-22T06:14:44.904Z,1.73
2018-09-22T06:17:13.130Z,1.50
2018-09-22T06:19:41.401Z,1.90
2018-09-22T06:22:09.633Z,1.77
2018-09-22T06:24:37.798Z,1.90
2018-09-22T06:27:06.244Z,1.80
2018-09-22T06:29:34.434Z,1.67
2018-09-22T06:32:02.725Z,1.40
2018-09-22T06:34:30.905Z,2.53
2018-09-22T06:36:59.124Z,1.70
2018-09-22T06:39:27.384Z,2.17
2018-09-22T06:41:55.826Z,1.40
2018-09-22T06:44:24.108Z,1.40
2018-09-22T06:46:52.392Z,1.57
2018-09-22T06:49:20.553Z,1.70
2018-09-22T06:51:48.782Z,1.93
2018-09-22T06:54:16.960Z,2.27
2018-09-22T06:56:45.169Z,1.60
2018-09-22T06:59:13.522Z,1.80
2018-09-22T07:01:41.697Z,1.10
2018-09-22T07:04:09.929Z,1.40
2018-09-22T07:06:38.113Z,1.80
2018-09-22T07:09:07.083Z,1.87
2018-09-22T07:11:35.346Z,1.70
2018-09-22T07:14:03.548Z,1.83
2018-09-22T07:16:31.763Z,2.47
2018-09-22T07:18:59.912Z,2.27
2018-09-22T07:21:33.563Z,1.60
2018-09-22T07:24:01.813Z,1.93
2018-09-22T07:26:30.005Z,1.70
2018-09-22T07:28:58.193Z,1.30
2018-09-22T07:31:26.369Z,1.87
2018-09-22T07:33:54.601Z,1.70
2018-09-22T07:36:22.858Z,1.73
2018-09-22T07:38:51.077Z,1.80
2018-09-22T07:41:19.661Z,1.60
2018-09-22T07:43:47.817Z,2.00
2018-09-22T07:46:16.001Z,2.00
2018-09-22T07:48:44.201Z,1.40
2018-09-22T07:51:12.445Z,1.27
2018-09-22T07:53:40.640Z,1.37
2018-09-22T07:56:08.839Z,1.50
2018-09-22T07:58:37.069Z,1.87
2018-09-22T08:01:05.301Z,1.37
2018-09-22T08:03:33.501Z,2.00
2018-09-22T08:06:01.717Z,1.60
2018-09-22T08:08:29.897Z,1.57
2018-09-22T08:10:58.097Z,2.13
2018-09-22T08:13:26.294Z,1.70
2018-09-22T08:15:54.505Z,1.80
2018-09-22T08:18:22.717Z,1.50
2018-09-22T08:20:50.893Z,1.27
2018-09-22T08:23:20.033Z,1.60
2018-09-22T08:25:48.264Z,2.07
2018-09-22T08:28:16.489Z,2.10
2018-09-22T08:30:44.700Z,2.53
2018-09-22T08:33:12.969Z,11.40
2018-09-22T08:35:41.213Z,3.97
2018-09-22T08:38:09.381Z,1.27
2018-09-22T08:40:37.597Z,2.10
2018-09-22T08:43:05.764Z,1.67
2018-09-22T08:45:33.968Z,1.57
2018-09-22T08:48:02.138Z,1.70
2018-09-22T08:50:30.381Z,5.90
2018-09-22T08:52:58.573Z,5.27
2018-09-22T08:55:26.779Z,2.40
2018-09-22T08:57:54.999Z,3.57
2018-09-22T09:00:23.288Z,2.00
2018-09-22T09:02:51.513Z,1.90
2018-09-22T09:05:19.685Z,1.57
2018-09-22T09:07:47.879Z,1.23
2018-09-22T09:10:16.179Z,1.13
2018-09-22T09:12:44.426Z,1.73
2018-09-22T09:15:12.735Z,1.70
2018-09-22T09:17:40.900Z,1.80
2018-09-22T09:20:09.113Z,1.53
2018-09-22T09:22:37.367Z,1.50
2018-09-22T09:25:05.658Z,1.50
2018-09-22T09:27:33.928Z,1.57
2018-09-22T09:30:02.056Z,2.40
2018-09-22T09:32:30.298Z,1.60
2018-09-22T09:34:58.492Z,1.60
2018-09-22T09:37:26.654Z,1.20
2018-09-22T09:39:54.870Z,1.17
2018-09-22T09:42:23.106Z,1.27
2018-09-22T09:44:51.326Z,1.10
2018-09-22T09:47:19.521Z,1.80
2018-09-22T09:49:47.688Z,1.30
2018-09-22T09:52:15.908Z,1.60
2018-09-22T09:54:44.085Z,1.50
2018-09-22T09:57:12.300Z,1.10
2018-09-22T09:59:40.561Z,1.67
2018-09-22T10:02:08.753Z,1.63
2018-09-22T10:04:36.950Z,1.43
2018-09-22T10:07:05.503Z,1.33
2018-09-22T10:09:33.707Z,1.80
2018-09-22T10:12:01.924Z,1.53
2018-09-22T10:14:30.090Z,1.23
2018-09-22T10:16:58.292Z,1.70
2018-09-22T10:19:26.458Z,1.70
2018-09-22T10:21:54.669Z,1.47
2018-09-22T10:24:22.949Z,1.60
2018-09-22T10:26:51.410Z,1.57
2018-09-22T10:29:21.696Z,1.60
2018-09-22T10:31:50.940Z,1.20
2018-09-22T10:34:19.285Z,1.23
2018-09-22T10:36:47.689Z,1.20
2018-09-22T10:39:15.948Z,1.73
2018-09-22T10:41:44.269Z,1.27
2018-09-22T10:44:12.845Z,1.43
2018-09-22T10:46:41.471Z,1.53
2018-09-22T10:49:09.766Z,1.20
2018-09-22T10:51:38.017Z,1.97
2018-09-22T10:54:06.375Z,1.07
2018-09-22T10:56:35.161Z,1.63
2018-09-22T10:59:03.479Z,1.40
2018-09-22T11:01:31.660Z,1.73
2018-09-22T11:03:59.866Z,1.97
2018-09-22T11:06:28.064Z,1.87
2018-09-22T11:08:56.280Z,1.93
2018-09-22T11:11:24.527Z,1.47
2018-09-22T11:13:52.725Z,1.43
2018-09-22T11:16:20.945Z,1.80
2018-09-22T11:18:49.149Z,1.23
2018-09-22T11:21:17.372Z,1.57
2018-09-22T11:23:45.577Z,2.40
2018-09-22T11:26:13.772Z,1.50
2018-09-22T11:28:41.956Z,1.10
2018-09-22T11:31:10.165Z,1.60
2018-09-22T11:33:38.357Z,1.50
2018-09-22T11:36:06.768Z,1.80
2018-09-22T11:38:34.984Z,1.27
2018-09-22T11:41:03.201Z,1.73
2018-09-22T11:43:31.385Z,1.73
2018-09-22T11:45:59.608Z,1.70
2018-09-22T11:48:27.777Z,1.70
2018-09-22T11:50:55.989Z,1.57
2018-09-22T11:53:24.196Z,2.00
2018-09-22T11:55:52.376Z,2.20
2018-09-22T11:58:20.584Z,1.80
2018-09-22T12:00:48.777Z,1.70
2018-09-22T12:03:23.572Z,1.53
2018-09-22T12:05:51.804Z,1.47
2018-09-22T12:08:19.985Z,1.20
2018-09-22T12:10:48.241Z,2.20
2018-09-22T12:13:16.408Z,1.30
2018-09-22T12:15:44.617Z,1.40
2018-09-22T12:18:12.817Z,1.37
2018-09-22T12:20:41.022Z,1.40
2018-09-22T12:23:09.266Z,1.57
2018-09-22T12:25:37.436Z,1.70
2018-09-22T12:28:05.653Z,1.73
2018-09-22T12:30:33.837Z,1.37
2018-09-22T12:33:02.065Z,1.50
2018-09-22T12:35:30.298Z,2.07
2018-09-22T12:37:58.465Z,1.37
2018-09-22T12:40:26.657Z,1.50
2018-09-22T12:42:54.849Z,1.60
2018-09-22T12:45:23.202Z,1.30
2018-09-22T12:47:51.421Z,1.50
2018-09-22T12:50:19.612Z,1.53
2018-09-22T12:52:47.809Z,1.30
2018-09-22T12:55:16.015Z,1.80
2018-09-22T12:57:44.264Z,1.37
2018-09-22T13:00:12.470Z,1.70
2018-09-22T13:02:40.720Z,1.90
2018-09-22T13:05:08.991Z,1.63
2018-09-22T13:07:37.148Z,1.70
2018-09-22T13:10:05.422Z,1.10
2018-09-22T13:12:33.576Z,1.73
2018-09-22T13:15:01.773Z,1.63
2018-09-22T13:17:30.109Z,1.47
2018-09-22T13:19:58.294Z,1.47
2018-09-22T13:22:26.506Z,1.50
2018-09-22T13:24:54.743Z,1.57
2018-09-22T13:27:22.949Z,1.90
2018-09-22T13:29:51.178Z,1.70
2018-09-22T13:32:19.361Z,1.47
2018-09-22T13:34:47.554Z,1.53
2018-09-22T13:37:15.758Z,2.30
2018-09-22T13:39:43.955Z,1.43
2018-09-22T13:42:12.168Z,1.83
2018-09-22T13:44:40.338Z,1.23
2018-09-22T13:47:08.739Z,2.60
2018-09-22T13:49:36.938Z,2.10
2018-09-22T13:52:05.173Z,1.50
2018-09-22T13:54:33.426Z,1.67
2018-09-22T13:57:01.637Z,1.70
2018-09-22T13:59:29.853Z,1.47
2018-09-22T14:01:58.919Z,1.57
2018-09-22T14:04:27.114Z,1.43
2018-09-22T14:06:55.339Z,1.97
2018-09-22T14:09:23.561Z,2.53
2018-09-22T14:11:51.790Z,2.07
2018-09-22T14:14:19.966Z,1.90
2018-09-22T14:16:48.189Z,1.80
2018-09-22T14:19:16.372Z,2.20
2018-09-22T14:21:44.565Z,2.00
2018-09-22T14:24:12.840Z,2.33
2018-09-22T14:26:41.055Z,2.50
2018-09-22T14:29:09.293Z,1.63
2018-09-22T14:31:37.452Z,2.27
2018-09-22T14:34:05.658Z,1.87
2018-09-22T14:36:33.804Z,1.57
2018-09-22T14:39:01.992Z,1.43
2018-09-22T14:41:30.162Z,1.37
2018-09-22T14:43:58.374Z,1.40
2018-09-22T14:46:26.596Z,1.43
2018-09-22T14:48:54.813Z,1.50
2018-09-22T14:51:23.073Z,2.10
2018-09-22T14:53:51.270Z,1.30
2018-09-22T14:56:19.493Z,1.47
2018-09-22T14:58:47.721Z,1.20
2018-09-22T15:01:15.933Z,1.57
2018-09-22T15:03:44.160Z,2.17
2018-09-22T15:06:12.316Z,1.80
2018-09-22T15:08:40.610Z,3.43
2018-09-22T15:11:08.812Z,2.07
2018-09-22T15:13:36.994Z,4.33
2018-09-22T15:16:05.235Z,1.60
2018-09-22T15:18:33.417Z,1.20
2018-09-22T15:21:01.650Z,2.17
2018-09-22T15:23:29.813Z,1.37
2018-09-22T15:25:58.066Z,1.27
2018-09-22T15:28:26.377Z,1.83
2018-09-22T15:30:54.597Z,11.23
2018-09-22T15:33:22.897Z,2.93
2018-09-22T15:35:51.089Z,2.33
2018-09-22T15:38:19.272Z,2.00
2018-09-22T15:40:47.549Z,2.00
2018-09-22T15:43:15.780Z,5.40
2018-09-22T15:45:43.948Z,1.30
2018-09-22T15:48:12.245Z,1.27
2018-09-22T15:50:40.449Z,1.40
2018-09-22T15:53:08.678Z,1.00
2018-09-22T15:55:36.905Z,1.43
2018-09-22T15:58:05.221Z,1.57
2018-09-22T16:00:33.449Z,1.13
2018-09-22T16:03:01.642Z,1.50
2018-09-22T16:05:29.854Z,1.73
2018-09-22T16:07:58.042Z,1.17
2018-09-22T16:10:26.257Z,1.33
2018-09-22T16:12:54.442Z,1.50
2018-09-22T16:15:22.752Z,2.17
2018-09-22T16:17:50.916Z,1.57
2018-09-22T16:20:19.156Z,1.80
2018-09-22T16:22:47.449Z,1.77
2018-09-22T16:25:15.697Z,1.43
2018-09-22T16:27:43.858Z,1.57
2018-09-22T16:30:12.090Z,1.53
2018-09-22T16:32:40.265Z,1.63
2018-09-22T16:35:08.483Z,1.83
2018-09-22T16:37:36.693Z,2.50
2018-09-22T16:40:04.957Z,1.40
2018-09-22T16:42:33.147Z,1.87
2018-09-22T16:45:01.347Z,1.60
2018-09-22T16:47:29.558Z,1.27
2018-09-22T16:49:57.721Z,1.60
2018-09-22T16:52:25.941Z,1.77
2018-09-22T16:54:54.157Z,1.33
2018-09-22T16:57:22.377Z,1.20
2018-09-22T16:59:50.577Z,1.60
2018-09-22T17:02:18.824Z,1.50
2018-09-22T17:04:47.049Z,2.07
2018-09-22T17:07:15.274Z,1.60
2018-09-22T17:09:43.532Z,1.23
2018-09-22T17:12:11.742Z,1.50
2018-09-22T17:14:39.917Z,1.10
2018-09-22T17:17:08.269Z,1.30
2018-09-22T17:19:36.465Z,1.73
2018-09-22T17:22:04.757Z,1.83
2018-09-22T17:24:32.965Z,2.17
2018-09-22T17:27:01.181Z,1.90
2018-09-22T17:29:29.425Z,1.80
2018-09-22T17:31:57.645Z,1.30
2018-09-22T17:34:25.786Z,1.60
2018-09-22T17:36:54.253Z,1.80
2018-09-22T17:39:22.437Z,1.50
2018-09-22T17:41:50.685Z,1.60
2018-09-22T17:44:18.910Z,1.47
2018-09-22T17:46:47.116Z,1.50
2018-09-22T17:49:15.298Z,1.80
2018-09-22T17:51:43.506Z,1.67
2018-09-22T17:54:11.718Z,1.80
2018-09-22T17:56:39.964Z,2.20
2018-09-22T17:59:08.173Z,1.33
2018-09-22T18:01:36.356Z,2.00
2018-09-22T18:04:04.562Z,1.70
2018-09-22T18:06:32.862Z,1.60
2018-09-22T18:09:01.325Z,1.30
2018-09-22T18:11:29.502Z,1.53
2018-09-22T18:13:57.708Z,1.70
2018-09-22T18:16:25.937Z,1.83
2018-09-22T18:18:54.152Z,2.30
2018-09-22T18:21:22.549Z,1.97
2018-09-22T18:23:50.916Z,2.40
2018-09-22T18:26:19.285Z,1.73
2018-09-22T18:28:47.544Z,1.40
2018-09-22T18:31:15.957Z,1.80
2018-09-22T18:33:44.176Z,1.87
2018-09-22T18:36:12.333Z,2.00
2018-09-22T18:38:40.545Z,2.40
2018-09-22T18:41:08.731Z,1.80
2018-09-22T18:43:36.925Z,1.97
2018-09-22T18:46:05.145Z,1.70
2018-09-22T18:48:33.344Z,1.93
2018-09-22T18:51:01.573Z,2.80
2018-09-22T18:53:29.745Z,1.93
2018-09-22T18:55:57.969Z,2.50
2018-09-22T18:58:26.264Z,2.33
2018-09-22T19:00:54.467Z,1.93
2018-09-22T19:03:22.686Z,2.37
2018-09-22T19:05:50.962Z,2.17
2018-09-22T19:08:19.968Z,2.70
2018-09-22T19:10:48.179Z,2.63
2018-09-22T19:13:21.148Z,2.67
2018-09-22T19:15:51.709Z,2.60
2018-09-22T19:18:25.174Z,2.40
2018-09-22T19:21:06.728Z,2.33
2018-09-22T19:23:38.743Z,2.23
2018-09-22T19:26:43.109Z,2.07
2018-09-22T19:29:22.731Z,2.90
2018-09-22T19:31:55.205Z,2.67
2018-09-22T19:34:27.248Z,2.30
2018-09-22T19:37:00.604Z,2.80
2018-09-22T19:39:34.285Z,3.20
2018-09-22T19:42:07.158Z,3.27
2018-09-22T19:45:39.369Z,3.40
2018-09-22T19:48:12.976Z,2.60
2018-09-22T19:50:47.783Z,3.70
2018-09-22T19:53:16.186Z,3.10
2018-09-22T19:55:44.405Z,3.17
2018-09-22T19:58:12.929Z,2.87
2018-09-22T20:00:41.165Z,3.63
2018-09-22T20:03:09.612Z,2.83
2018-09-22T20:05:37.934Z,3.17
2018-09-22T20:08:07.353Z,2.20
2018-09-22T20:10:35.585Z,2.50
2018-09-22T20:13:03.763Z,3.57
2018-09-22T20:15:32.401Z,27.90
2018-09-22T20:18:00.621Z,29.77
2018-09-22T20:20:28.855Z,7.23
2018-09-22T20:22:57.446Z,38.50
2018-09-22T20:25:25.849Z,27.87
2018-09-22T20:27:54.090Z,8.50
2018-09-22T20:30:22.443Z,3.60
2018-09-22T20:32:50.665Z,3.00
2018-09-22T20:35:18.886Z,1.87
2018-09-22T20:37:48.332Z,3.87
2018-09-22T20:40:16.646Z,2.40
2018-09-22T20:42:45.022Z,2.23
2018-09-22T20:45:13.205Z,2.27
2018-09-22T20:47:41.531Z,1.97
2018-09-22T20:50:09.688Z,2.10
2018-09-22T20:52:37.893Z,2.07
2018-09-22T20:55:06.113Z,1.53
2018-09-22T20:57:34.314Z,2.20
2018-09-22T21:00:02.665Z,2.03
2018-09-22T21:02:30.856Z,1.70
2018-09-22T21:04:59.044Z,2.40
2018-09-22T21:07:27.237Z,2.20
2018-09-22T21:09:55.392Z,2.20
2018-09-22T21:12:24.730Z,2.40
2018-09-22T21:14:53.636Z,2.70
2018-09-22T21:17:22.456Z,2.30
2018-09-22T21:19:51.193Z,1.90
2018-09-22T21:22:19.473Z,2.17
2018-09-22T21:24:47.661Z,2.20
2018-09-22T21:27:15.881Z,2.87
2018-09-22T21:29:44.255Z,2.47
2018-09-22T21:32:12.496Z,2.17
2018-09-22T21:34:40.725Z,2.20
2018-09-22T21:37:08.941Z,2.33
2018-09-22T21:39:37.112Z,2.10
2018-09-22T21:42:05.337Z,1.80
2018-09-22T21:44:33.533Z,2.30
2018-09-22T21:47:01.734Z,2.37
2018-09-22T21:49:29.910Z,2.40
2018-09-22T21:51:58.135Z,2.37
2018-09-22T21:54:26.318Z,2.57
2018-09-22T21:56:54.529Z,2.27
2018-09-22T21:59:22.709Z,2.70
2018-09-22T22:01:50.973Z,2.67
2018-09-22T22:04:19.167Z,2.07
2018-09-22T22:06:47.364Z,1.93
2018-09-22T22:09:15.545Z,1.90
2018-09-22T22:11:43.762Z,1.63
2018-09-22T22:14:11.940Z,2.33
2018-09-22T22:16:40.453Z,2.70
2018-09-22T22:19:08.980Z,2.40
2018-09-22T22:21:37.148Z,2.20
2018-09-22T22:24:05.513Z,2.30
2018-09-22T22:26:33.705Z,2.70
2018-09-22T22:29:01.928Z,2.67
2018-09-22T22:31:30.191Z,2.40
2018-09-22T22:33:58.397Z,2.27
2018-09-22T22:36:26.566Z,2.90
2018-09-22T22:38:54.821Z,2.67
2018-09-22T22:41:23.040Z,1.80
2018-09-22T22:43:51.234Z,2.87
2018-09-22T22:46:19.434Z,3.50
2018-09-22T22:48:47.636Z,2.60
2018-09-22T22:51:15.785Z,2.67
2018-09-22T22:53:44.052Z,2.43
2018-09-22T22:56:12.237Z,2.10
2018-09-22T22:58:40.440Z,1.80
2018-09-22T23:01:08.941Z,2.50
2018-09-22T23:03:37.124Z,2.40
2018-09-22T23:06:05.322Z,2.60
2018-09-22T23:08:33.533Z,1.90
2018-09-22T23:11:01.790Z,2.30
2018-09-22T23:13:30.001Z,1.90
2018-09-22T23:15:58.179Z,2.37
2018-09-22T23:18:26.388Z,2.20
2018-09-22T23:20:54.558Z,1.80
2018-09-22T23:23:22.798Z,2.40
2018-09-22T23:25:51.015Z,2.57
2018-09-22T23:28:19.225Z,2.00
2018-09-22T23:30:47.389Z,2.80
2018-09-22T23:33:15.617Z,2.33
2018-09-22T23:35:43.760Z,2.50
2018-09-22T23:38:11.953Z,2.40
2018-09-22T23:40:40.125Z,2.23
2018-09-22T23:43:08.328Z,2.20
2018-09-22T23:45:36.528Z,1.90
2018-09-22T23:48:04.736Z,1.90
2018-09-22T23:50:39.791Z,2.20
2018-09-22T23:53:08.013Z,1.60
2018-09-22T23:55:36.170Z,2.07
2018-09-22T23:58:04.388Z,1.60
